createdAt,value
2022-08-22T00:00:43.863Z,19.98
2022-08-22T00:02:47.779Z,21.99
2022-08-22T00:02:58.023Z,20.01
2022-08-22T00:03:02.036Z,21.17
2022-08-22T00:03:31.128Z,19.99
2022-08-22T00:06:24.543Z,20.00
2022-08-22T00:09:49.243Z,20.01
2022-08-22T00:12:30.509Z,20.03
2022-08-22T00:15:42.005Z,20.04
2022-08-22T00:18:34.944Z,20.05
2022-08-22T00:21:12.857Z,20.06
2022-08-22T00:24:05.297Z,20.06
2022-08-22T00:26:45.430Z,20.08
2022-08-22T00:29:32.466Z,20.10
2022-08-22T00:32:11.092Z,20.12
2022-08-22T00:35:03.225Z,20.15
2022-08-22T00:37:37.746Z,20.19
2022-08-22T00:40:20.222Z,20.22
2022-08-22T00:43:14.435Z,20.23
2022-08-22T00:46:27.494Z,20.23
2022-08-22T00:49:22.880Z,20.26
2022-08-22T00:52:08.456Z,20.28
2022-08-22T00:54:58.754Z,20.29
2022-08-22T00:57:35.628Z,20.30
2022-08-22T01:00:13.632Z,20.30
2022-08-22T01:02:52.308Z,20.32
2022-08-22T01:05:42.096Z,20.33
2022-08-22T01:08:22.391Z,20.32
2022-08-22T01:11:30.099Z,20.30
2022-08-22T01:14:20.083Z,20.27
2022-08-22T01:17:35.178Z,20.25
2022-08-22T01:20:31.180Z,20.22
2022-08-22T01:23:17.791Z,20.20
2022-08-22T01:26:08.077Z,20.17
2022-08-22T01:29:08.528Z,20.12
2022-08-22T01:32:07.950Z,20.06
2022-08-22T01:34:57.088Z,19.99
2022-08-22T01:37:43.949Z,19.93
2022-08-22T01:40:54.289Z,19.87
2022-08-22T01:44:01.166Z,19.82
2022-08-22T01:47:00.239Z,19.75
2022-08-22T01:49:35.708Z,19.71
2022-08-22T01:52:15.944Z,19.68
2022-08-22T01:54:59.269Z,19.66
2022-08-22T01:57:27.875Z,19.65
2022-08-22T01:59:59.665Z,19.65
2022-08-22T02:02:44.898Z,19.66
2022-08-22T02:05:18.821Z,19.66
2022-08-22T02:08:03.966Z,19.67
2022-08-22T02:10:40.852Z,19.67
2022-08-22T02:13:14.961Z,19.67
2022-08-22T02:16:01.668Z,19.68
2022-08-22T02:19:00.919Z,19.70
2022-08-22T02:21:46.350Z,19.72
2022-08-22T02:24:26.698Z,19.74
2022-08-22T02:27:05.334Z,19.76
2022-08-22T02:30:00.518Z,19.77
2022-08-22T02:32:32.192Z,19.76
2022-08-22T02:35:00.265Z,19.77
2022-08-22T02:37:47.592Z,19.77
2022-08-22T02:40:34.501Z,19.76
2022-08-22T02:43:19.576Z,19.77
2022-08-22T02:45:58.196Z,19.76
2022-08-22T02:48:53.635Z,19.73
2022-08-22T02:51:50.584Z,19.71
2022-08-22T02:54:18.630Z,19.68
2022-08-22T02:57:03.529Z,19.66
2022-08-22T02:59:38.517Z,19.65
2022-08-22T03:02:26.468Z,19.63
2022-08-22T03:05:23.006Z,19.62
2022-08-22T03:08:05.850Z,19.61
2022-08-22T03:10:41.273Z,19.59
2022-08-22T03:13:31.315Z,19.58
2022-08-22T03:16:22.771Z,19.55
2022-08-22T03:19:01.900Z,19.53
2022-08-22T03:21:41.631Z,19.50
2022-08-22T03:24:34.514Z,19.48
2022-08-22T03:27:39.336Z,19.45
2022-08-22T03:30:31.066Z,19.41
2022-08-22T03:33:24.120Z,19.39
2022-08-22T03:35:57.959Z,19.40
2022-08-22T03:38:32.245Z,19.41
2022-08-22T03:41:09.429Z,19.39
2022-08-22T03:44:00.474Z,19.36
2022-08-22T03:46:52.885Z,19.33
2022-08-22T03:49:39.696Z,19.29
2022-08-22T03:52:22.817Z,19.25
2022-08-22T03:55:09.571Z,19.23
2022-08-22T03:57:44.564Z,19.21
2022-08-22T04:00:43.173Z,19.20
2022-08-22T04:03:36.156Z,19.16
2022-08-22T04:06:27.466Z,19.11
2022-08-22T04:09:10.439Z,19.08
2022-08-22T04:11:39.543Z,19.07
2022-08-22T04:14:55.074Z,19.07
2022-08-22T04:17:35.283Z,19.08
2022-08-22T04:20:31.818Z,19.07
2022-08-22T04:23:09.927Z,19.06
2022-08-22T04:25:47.830Z,19.06
2022-08-22T04:28:22.996Z,19.08
2022-08-22T04:30:56.708Z,19.09
2022-08-22T04:33:29.660Z,19.12
2022-08-22T04:36:13.559Z,19.15
2022-08-22T04:38:48.856Z,19.17
2022-08-22T04:41:24.624Z,19.19
2022-08-22T04:44:08.336Z,19.20
2022-08-22T04:47:19.006Z,19.24
2022-08-22T04:50:15.135Z,19.26
2022-08-22T04:52:52.748Z,19.29
2022-08-22T04:55:51.647Z,19.33
2022-08-22T04:58:41.400Z,19.37
2022-08-22T05:01:16.915Z,19.42
2022-08-22T05:04:18.913Z,19.47
2022-08-22T05:06:54.381Z,19.50
2022-08-22T05:09:31.219Z,19.54
2022-08-22T05:12:05.802Z,19.59
2022-08-22T05:14:40.675Z,19.65
2022-08-22T05:17:15.552Z,19.71
2022-08-22T05:19:50.972Z,19.77
2022-08-22T05:22:24.717Z,19.84
2022-08-22T05:24:59.526Z,19.90
2022-08-22T05:27:35.861Z,19.93
2022-08-22T05:30:21.204Z,19.95
2022-08-22T05:33:00.995Z,19.98
2022-08-22T05:35:38.074Z,20.03
2022-08-22T05:38:12.237Z,20.08
2022-08-22T05:40:41.433Z,20.14
2022-08-22T05:43:13.456Z,20.20
2022-08-22T05:45:46.432Z,20.24
2022-08-22T05:48:23.115Z,20.28
2022-08-22T05:51:12.176Z,20.31
2022-08-22T05:53:44.957Z,20.36
2022-08-22T05:56:23.989Z,20.41
2022-08-22T05:59:04.141Z,20.47
2022-08-22T06:01:58.994Z,20.53
2022-08-22T06:04:50.295Z,20.59
2022-08-22T06:07:28.467Z,20.65
2022-08-22T06:10:19.476Z,20.71
2022-08-22T06:13:34.346Z,20.79
2022-08-22T06:16:27.714Z,20.87
2022-08-22T06:18:58.150Z,20.97
2022-08-22T06:21:38.568Z,21.06
2022-08-22T06:24:13.580Z,21.16
2022-08-22T06:26:48.573Z,21.27
2022-08-22T06:29:42.853Z,21.39
2022-08-22T06:32:16.152Z,21.53
2022-08-22T06:34:47.085Z,21.66
2022-08-22T06:37:31.867Z,21.79
2022-08-22T06:40:02.863Z,21.90
2022-08-22T06:42:33.912Z,21.95
2022-08-22T06:45:12.480Z,22.04
2022-08-22T06:47:49.919Z,22.13
2022-08-22T06:50:25.411Z,22.15
2022-08-22T06:53:08.313Z,22.22
2022-08-22T06:55:40.601Z,22.29
2022-08-22T06:58:22.886Z,22.38
2022-08-22T07:01:05.754Z,22.48
2022-08-22T07:03:58.449Z,22.61
2022-08-22T07:06:34.932Z,22.72
2022-08-22T07:09:06.980Z,22.84
2022-08-22T07:11:39.769Z,22.92
2022-08-22T07:14:12.444Z,23.00
2022-08-22T07:16:40.416Z,23.06
2022-08-22T07:19:21.956Z,23.15
2022-08-22T07:21:50.032Z,23.23
2022-08-22T07:24:23.318Z,23.31
2022-08-22T07:27:17.129Z,23.37
2022-08-22T07:30:04.047Z,23.43
2022-08-22T07:32:47.999Z,23.48
2022-08-22T07:35:27.202Z,23.53
2022-08-22T07:38:10.463Z,23.60
2022-08-22T07:41:00.447Z,23.69
2022-08-22T07:43:38.245Z,23.76
2022-08-22T07:46:27.722Z,23.79
2022-08-22T07:49:21.952Z,23.83
2022-08-22T07:51:54.541Z,23.90
2022-08-22T07:54:37.122Z,23.96
2022-08-22T07:57:27.705Z,23.99
2022-08-22T08:00:00.175Z,23.99
2022-08-22T08:02:28.980Z,23.95
2022-08-22T08:05:00.613Z,23.98
2022-08-22T08:07:30.248Z,23.99
2022-08-22T08:10:12.760Z,23.98
2022-08-22T08:13:00.559Z,23.92
2022-08-22T08:15:34.989Z,23.96
2022-08-22T08:18:08.944Z,24.01
2022-08-22T08:20:38.506Z,24.03
2022-08-22T08:23:10.712Z,24.02
2022-08-22T08:26:06.387Z,24.06
2022-08-22T08:28:41.881Z,24.12
2022-08-22T08:31:45.001Z,24.18
2022-08-22T08:34:23.479Z,24.27
2022-08-22T08:37:20.803Z,24.38
2022-08-22T08:39:52.197Z,24.52
2022-08-22T08:42:58.935Z,24.63
2022-08-22T08:45:56.418Z,24.77
2022-08-22T08:48:36.240Z,24.92
2022-08-22T08:51:23.431Z,25.08
2022-08-22T08:54:31.981Z,25.23
2022-08-22T08:57:08.858Z,25.37
2022-08-22T08:59:45.452Z,25.49
2022-08-22T09:02:48.238Z,25.60
2022-08-22T09:05:17.043Z,25.69
2022-08-22T09:08:03.303Z,25.80
2022-08-22T09:10:51.357Z,25.91
2022-08-22T09:13:51.569Z,25.98
2022-08-22T09:16:22.498Z,26.06
2022-08-22T09:19:29.288Z,26.13
2022-08-22T09:22:14.261Z,26.22
2022-08-22T09:25:07.521Z,26.35
2022-08-22T09:27:54.195Z,26.53
2022-08-22T09:30:31.411Z,26.69
2022-08-22T09:33:06.395Z,26.84
2022-08-22T09:36:01.083Z,26.98
2022-08-22T09:38:39.172Z,27.05
2022-08-22T09:41:24.878Z,27.11
2022-08-22T09:44:31.223Z,27.23
2022-08-22T09:47:24.998Z,27.34
2022-08-22T09:50:06.618Z,27.45
2022-08-22T09:52:56.550Z,27.52
2022-08-22T09:55:39.405Z,27.60
2022-08-22T09:58:28.557Z,27.72
2022-08-22T10:01:11.971Z,27.83
2022-08-22T10:03:46.182Z,27.79
2022-08-22T10:06:23.691Z,27.76
2022-08-22T10:09:31.346Z,27.78
2022-08-22T10:12:15.301Z,27.89
2022-08-22T10:15:16.058Z,28.06
2022-08-22T10:17:58.903Z,28.15
2022-08-22T10:20:54.312Z,28.19
2022-08-22T10:23:47.061Z,28.35
2022-08-22T10:26:22.897Z,28.45
2022-08-22T10:29:04.199Z,28.29
2022-08-22T10:31:51.067Z,28.10
2022-08-22T10:34:36.986Z,28.02
2022-08-22T10:37:51.096Z,28.01
2022-08-22T10:40:28.819Z,28.10
2022-08-22T10:43:13.101Z,28.18
2022-08-22T10:45:46.533Z,28.27
2022-08-22T10:48:25.734Z,28.36
2022-08-22T10:51:16.547Z,28.51
2022-08-22T10:54:25.646Z,28.76
2022-08-22T10:57:13.101Z,28.90
2022-08-22T10:59:54.408Z,28.95
2022-08-22T11:02:31.130Z,28.95
2022-08-22T11:05:39.404Z,29.01
2022-08-22T11:08:29.121Z,29.10
2022-08-22T11:11:14.397Z,29.25
2022-08-22T11:13:55.472Z,29.30
2022-08-22T11:16:44.439Z,29.42
2022-08-22T11:19:36.472Z,29.47
2022-08-22T11:22:13.347Z,29.53
2022-08-22T11:25:06.504Z,29.50
2022-08-22T11:27:46.382Z,29.44
2022-08-22T11:30:44.018Z,29.30
2022-08-22T11:33:47.220Z,29.00
2022-08-22T11:36:34.257Z,28.71
2022-08-22T11:39:41.105Z,28.53
2022-08-22T11:42:14.789Z,28.25
2022-08-22T11:44:56.774Z,27.96
2022-08-22T11:47:40.963Z,27.89
2022-08-22T11:50:35.191Z,27.72
2022-08-22T11:53:09.197Z,27.64
2022-08-22T11:56:05.457Z,27.47
2022-08-22T11:58:45.749Z,27.30
2022-08-22T12:01:41.900Z,27.24
2022-08-22T12:04:18.347Z,26.96
2022-08-22T12:06:50.780Z,26.80
2022-08-22T12:09:41.525Z,26.69
2022-08-22T12:12:33.967Z,26.81
2022-08-22T12:15:13.124Z,26.88
2022-08-22T12:18:00.998Z,27.05
2022-08-22T12:20:57.166Z,27.33
2022-08-22T12:23:49.376Z,27.59
2022-08-22T12:26:31.409Z,27.71
2022-08-22T12:29:44.621Z,27.99
2022-08-22T12:32:45.914Z,28.10
2022-08-22T12:35:40.281Z,28.27
2022-08-22T12:38:42.187Z,28.41
2022-08-22T12:41:37.754Z,28.74
2022-08-22T12:44:20.884Z,28.85
2022-08-22T12:47:13.053Z,29.13
2022-08-22T12:50:02.289Z,29.36
2022-08-22T12:52:47.560Z,29.50
2022-08-22T12:55:43.223Z,29.63
2022-08-22T12:58:14.222Z,29.75
2022-08-22T13:00:47.646Z,29.81
2022-08-22T13:03:28.577Z,29.86
2022-08-22T13:06:03.014Z,29.91
2022-08-22T13:08:38.867Z,29.97
2022-08-22T13:11:22.627Z,30.08
2022-08-22T13:13:58.073Z,30.19
2022-08-22T13:16:37.796Z,30.25
2022-08-22T13:19:17.066Z,30.25
2022-08-22T13:22:01.286Z,30.20
2022-08-22T13:24:56.845Z,30.18
2022-08-22T13:27:41.044Z,30.17
2022-08-22T13:30:26.263Z,30.15
2022-08-22T13:33:03.721Z,30.14
2022-08-22T13:35:52.809Z,30.14
2022-08-22T13:38:38.773Z,30.12
2022-08-22T13:41:23.913Z,30.06
2022-08-22T13:44:16.811Z,30.01
2022-08-22T13:47:12.807Z,29.95
2022-08-22T13:49:44.631Z,29.78
2022-08-22T13:52:29.119Z,29.53
2022-08-22T13:55:14.100Z,29.35
2022-08-22T13:57:55.370Z,29.27
2022-08-22T14:00:35.952Z,29.17
2022-08-22T14:03:09.748Z,29.11
2022-08-22T14:05:46.574Z,29.10
2022-08-22T14:08:18.648Z,29.08
2022-08-22T14:10:55.759Z,29.08
2022-08-22T14:13:37.779Z,29.11
2022-08-22T14:16:12.078Z,29.18
2022-08-22T14:18:50.252Z,29.04
2022-08-22T14:21:40.351Z,28.97
2022-08-22T14:24:26.927Z,29.01
2022-08-22T14:26:57.916Z,29.04
2022-08-22T14:29:32.249Z,28.92
2022-08-22T14:32:32.563Z,28.91
2022-08-22T14:35:25.423Z,28.88
2022-08-22T14:38:30.812Z,28.90
2022-08-22T14:41:17.185Z,28.89
2022-08-22T14:43:59.802Z,28.92
2022-08-22T14:46:38.929Z,29.03
2022-08-22T14:49:20.426Z,29.08
2022-08-22T14:52:02.111Z,29.20
2022-08-22T14:54:32.231Z,29.32
2022-08-22T14:57:10.378Z,29.42
2022-08-22T14:59:38.735Z,29.41
2022-08-22T15:02:30.035Z,29.38
2022-08-22T15:05:14.599Z,29.37
2022-08-22T15:07:43.097Z,29.36
2022-08-22T15:10:26.307Z,29.35
2022-08-22T15:13:08.042Z,29.28
2022-08-22T15:15:53.495Z,29.18
2022-08-22T15:18:26.974Z,29.04
2022-08-22T15:21:09.963Z,28.80
2022-08-22T15:23:44.817Z,28.48
2022-08-22T15:26:38.694Z,28.18
2022-08-22T15:29:28.097Z,27.95
2022-08-22T15:32:02.366Z,27.65
2022-08-22T15:34:44.496Z,27.39
2022-08-22T15:37:18.393Z,27.13
2022-08-22T15:40:12.499Z,26.66
2022-08-22T15:42:51.296Z,25.73
2022-08-22T15:45:33.925Z,25.25
2022-08-22T15:48:07.946Z,25.00
2022-08-22T15:50:55.924Z,24.86
2022-08-22T15:53:33.605Z,24.46
2022-08-22T15:56:11.359Z,24.17
2022-08-22T15:58:48.744Z,24.05
2022-08-22T16:01:24.563Z,23.98
2022-08-22T16:04:02.193Z,23.89
2022-08-22T16:06:42.367Z,23.78
2022-08-22T16:09:32.978Z,23.71
2022-08-22T16:12:06.145Z,23.66
2022-08-22T16:14:34.031Z,23.63
2022-08-22T16:17:26.657Z,23.61
2022-08-22T16:20:19.499Z,23.61
2022-08-22T16:22:57.573Z,23.61
2022-08-22T16:25:50.373Z,23.60
2022-08-22T16:28:54.241Z,23.58
2022-08-22T16:31:30.954Z,23.57
2022-08-22T16:34:26.567Z,23.57
2022-08-22T16:37:03.893Z,23.55
2022-08-22T16:39:37.934Z,23.54
2022-08-22T16:42:15.181Z,23.54
2022-08-22T16:44:47.938Z,23.54
2022-08-22T16:47:18.169Z,23.53
2022-08-22T16:49:52.250Z,23.53
2022-08-22T16:52:26.280Z,23.52
2022-08-22T16:55:00.484Z,23.50
2022-08-22T16:58:04.936Z,23.47
2022-08-22T17:00:36.483Z,23.41
2022-08-22T17:03:43.973Z,23.37
2022-08-22T17:06:38.211Z,23.31
2022-08-22T17:09:41.358Z,23.27
2022-08-22T17:12:17.252Z,23.25
2022-08-22T17:14:52.554Z,23.24
2022-08-22T17:17:51.546Z,23.21
2022-08-22T17:20:45.427Z,23.20
2022-08-22T17:23:38.307Z,23.20
2022-08-22T17:26:29.490Z,23.20
2022-08-22T17:29:23.779Z,23.21
2022-08-22T17:31:59.738Z,23.19
2022-08-22T17:34:39.071Z,23.16
2022-08-22T17:37:39.397Z,23.11
2022-08-22T17:40:31.348Z,23.06
2022-08-22T17:43:20.499Z,23.03
2022-08-22T17:46:13.655Z,22.99
2022-08-22T17:49:12.554Z,22.93
2022-08-22T17:51:49.529Z,22.87
2022-08-22T17:54:24.564Z,22.81
2022-08-22T17:57:05.034Z,22.73
2022-08-22T17:59:46.050Z,22.68
2022-08-22T18:02:22.265Z,22.58
2022-08-22T18:05:17.990Z,22.46
2022-08-22T18:07:52.184Z,22.31
2022-08-22T18:10:55.606Z,22.20
2022-08-22T18:14:00.234Z,22.09
2022-08-22T18:16:42.335Z,22.02
2022-08-22T18:19:48.046Z,21.98
2022-08-22T18:22:40.329Z,21.95
2022-08-22T18:25:36.763Z,21.96
2022-08-22T18:28:34.123Z,21.96
2022-08-22T18:31:08.790Z,21.95
2022-08-22T18:33:56.068Z,21.95
2022-08-22T18:36:31.248Z,21.93
2022-08-22T18:39:20.887Z,21.90
2022-08-22T18:41:57.510Z,21.88
2022-08-22T18:44:31.199Z,21.86
2022-08-22T18:47:21.716Z,21.83
2022-08-22T18:49:54.483Z,21.79
2022-08-22T18:52:35.383Z,21.76
2022-08-22T18:55:18.442Z,21.75
2022-08-22T18:58:09.757Z,21.72
2022-08-22T19:00:50.114Z,21.70
2022-08-22T19:03:45.164Z,21.69
2022-08-22T19:06:13.903Z,21.69
2022-08-22T19:09:03.787Z,21.68
2022-08-22T19:12:07.600Z,21.66
2022-08-22T19:14:47.387Z,21.63
2022-08-22T19:17:27.706Z,21.61
2022-08-22T19:20:20.149Z,21.57
2022-08-22T19:22:51.063Z,21.49
2022-08-22T19:25:26.464Z,21.44
2022-08-22T19:28:06.481Z,21.38
2022-08-22T19:30:34.552Z,21.31
2022-08-22T19:33:13.379Z,21.25
2022-08-22T19:35:43.945Z,21.19
2022-08-22T19:38:13.128Z,21.14
2022-08-22T19:40:53.473Z,21.09
2022-08-22T19:43:31.884Z,21.06
2022-08-22T19:46:03.929Z,21.04
2022-08-22T19:48:53.111Z,21.02
2022-08-22T19:51:21.183Z,21.01
2022-08-22T19:54:01.248Z,20.99
2022-08-22T19:56:48.455Z,20.97
2022-08-22T19:59:37.730Z,20.97
2022-08-22T20:02:23.722Z,20.97
2022-08-22T20:05:10.320Z,20.96
2022-08-22T20:07:44.024Z,20.95
2022-08-22T20:10:51.315Z,20.94
2022-08-22T20:13:24.645Z,20.90
2022-08-22T20:16:10.837Z,20.88
2022-08-22T20:19:08.390Z,20.86
2022-08-22T20:22:00.803Z,20.86
2022-08-22T20:24:53.360Z,20.86
2022-08-22T20:27:35.667Z,20.85
2022-08-22T20:30:07.874Z,20.85
2022-08-22T20:33:02.018Z,20.83
2022-08-22T20:35:43.497Z,20.80
2022-08-22T20:38:17.828Z,20.79
2022-08-22T20:40:59.587Z,20.79
2022-08-22T20:43:37.930Z,20.78
2022-08-22T20:46:33.681Z,20.77
2022-08-22T20:49:04.895Z,20.77
2022-08-22T20:51:34.428Z,20.77
2022-08-22T20:54:15.883Z,20.78
2022-08-22T20:57:03.721Z,20.78
2022-08-22T20:59:41.927Z,20.76
2022-08-22T21:02:19.038Z,20.74
2022-08-22T21:04:52.742Z,20.73
2022-08-22T21:07:27.897Z,20.72
2022-08-22T21:10:43.335Z,20.70
2022-08-22T21:13:27.488Z,20.69
2022-08-22T21:15:59.865Z,20.68
2022-08-22T21:18:31.050Z,20.67
2022-08-22T21:21:27.551Z,20.65
2022-08-22T21:24:04.611Z,20.62
2022-08-22T21:26:37.210Z,20.60
2022-08-22T21:29:14.409Z,20.56
2022-08-22T21:31:47.679Z,20.53
2022-08-22T21:34:20.883Z,20.51
2022-08-22T21:36:52.500Z,20.51
2022-08-22T21:39:28.877Z,20.49
2022-08-22T21:41:59.737Z,20.49
2022-08-22T21:44:42.369Z,20.48
2022-08-22T21:47:30.794Z,20.48
2022-08-22T21:50:01.245Z,20.51
2022-08-22T21:52:35.505Z,20.53
2022-08-22T21:55:22.145Z,20.54
2022-08-22T21:58:08.855Z,20.55
2022-08-22T22:00:48.965Z,20.55
2022-08-22T22:03:25.484Z,20.56
2022-08-22T22:05:57.924Z,20.57
2022-08-22T22:08:29.146Z,20.57
2022-08-22T22:11:02.961Z,20.58
2022-08-22T22:13:34.561Z,20.59
2022-08-22T22:16:03.350Z,20.59
2022-08-22T22:18:33.157Z,20.59
2022-08-22T22:21:01.643Z,20.60
2022-08-22T22:23:30.131Z,20.60
2022-08-22T22:26:01.556Z,20.59
2022-08-22T22:28:33.539Z,20.58
2022-08-22T22:31:01.709Z,20.56
2022-08-22T22:33:33.178Z,20.52
2022-08-22T22:36:26.222Z,20.48
2022-08-22T22:38:55.204Z,20.44
2022-08-22T22:41:25.780Z,20.43
2022-08-22T22:43:54.939Z,20.40
2022-08-22T22:46:23.882Z,20.36
2022-08-22T22:48:52.107Z,20.29
2022-08-22T22:51:20.279Z,20.25
2022-08-22T22:53:48.556Z,20.22
2022-08-22T22:56:22.446Z,20.22
2022-08-22T22:59:01.018Z,20.22
2022-08-22T23:02:10.530Z,20.19
2022-08-22T23:04:41.618Z,20.14
2022-08-22T23:07:11.489Z,20.11
2022-08-22T23:09:44.613Z,20.11
2022-08-22T23:12:14.799Z,20.10
2022-08-22T23:14:43.172Z,20.09
2022-08-22T23:17:11.655Z,20.07
2022-08-22T23:19:40.754Z,20.03
2022-08-22T23:22:10.972Z,19.99
2022-08-22T23:24:40.319Z,19.96
2022-08-22T23:27:10.602Z,19.91
2022-08-22T23:29:41.259Z,19.88
2022-08-22T23:32:10.858Z,19.85
2022-08-22T23:34:46.106Z,19.81
2022-08-22T23:37:19.066Z,19.76
2022-08-22T23:39:48.512Z,19.73
2022-08-22T23:42:18.268Z,19.70
2022-08-22T23:44:47.951Z,19.65
2022-08-22T23:47:16.163Z,19.62
2022-08-22T23:49:44.271Z,19.59
2022-08-22T23:52:13.745Z,19.55
2022-08-22T23:54:42.124Z,19.47
2022-08-22T23:57:12.080Z,19.40
2022-08-22T23:59:48.496Z,19.35
